sensor_id;sensor_type;location;lat;lon;timestamp;P1;durP1;ratioP1;P2;durP2;ratioP2
82938;SDS011;72714;52.744;4.900;2024-01-15T00:01:16;11.50;;;2.03;;
82938;SDS011;72714;52.744;4.900;2024-01-15T00:03:42;12.17;;;2.10;;
82938;SDS011;72714;52.744;4.900;2024-01-15T00:06:07;13.47;;;2.30;;
82938;SDS011;72714;52.744;4.900;2024-01-15T00:08:33;14.27;;;2.10;;
82938;SDS011;72714;52.744;4.900;2024-01-15T00:10:58;13.20;;;2.20;;
82938;SDS011;72714;52.744;4.900;2024-01-15T00:13:24;14.13;;;2.30;;
82938;SDS011;72714;52.744;4.900;2024-01-15T00:15:49;18.48;;;2.88;;
82938;SDS011;72714;52.744;4.900;2024-01-15T00:18:15;19.02;;;2.83;;
82938;SDS011;72714;52.744;4.900;2024-01-15T00:20:40;11.87;;;2.50;;
82938;SDS011;72714;52.744;4.900;2024-01-15T00:23:06;13.97;;;2.20;;
82938;SDS011;72714;52.744;4.900;2024-01-15T00:25:31;11.93;;;2.08;;
82938;SDS011;72714;52.744;4.900;2024-01-15T00:27:57;15.70;;;2.90;;
82938;SDS011;72714;52.744;4.900;2024-01-15T00:30:22;12.50;;;1.93;;
82938;SDS011;72714;52.744;4.900;2024-01-15T00:32:48;13.37;;;2.20;;
82938;SDS011;72714;52.744;4.900;2024-01-15T00:35:13;13.47;;;2.53;;
82938;SDS011;72714;52.744;4.900;2024-01-15T00:37:39;14.17;;;2.50;;
82938;SDS011;72714;52.744;4.900;2024-01-15T00:40:04;12.20;;;2.20;;
82938;SDS011;72714;52.744;4.900;2024-01-15T00:42:33;11.15;;;2.22;;
82938;SDS011;72714;52.744;4.900;2024-01-15T00:44:59;10.20;;;2.13;;
82938;SDS011;72714;52.744;4.900;2024-01-15T00:47:24;12.80;;;2.50;;
82938;SDS011;72714;52.744;4.900;2024-01-15T00:49:50;9.30;;;2.07;;
82938;SDS011;72714;52.744;4.900;2024-01-15T00:52:15;11.03;;;1.70;;
82938;SDS011;72714;52.744;4.900;2024-01-15T00:54:41;10.10;;;2.07;;
82938;SDS011;72714;52.744;4.900;2024-01-15T00:57:06;9.60;;;1.80;;
82938;SDS011;72714;52.744;4.900;2024-01-15T00:59:32;16.83;;;2.90;;
82938;SDS011;72714;52.744;4.900;2024-01-15T01:01:57;13.00;;;2.10;;
82938;SDS011;72714;52.744;4.900;2024-01-15T01:04:22;11.07;;;2.03;;
82938;SDS011;72714;52.744;4.900;2024-01-15T01:06:48;11.30;;;2.03;;
82938;SDS011;72714;52.744;4.900;2024-01-15T01:09:13;13.30;;;2.40;;
82938;SDS011;72714;52.744;4.900;2024-01-15T01:11:39;14.68;;;2.60;;
82938;SDS011;72714;52.744;4.900;2024-01-15T01:14:04;17.67;;;2.50;;
82938;SDS011;72714;52.744;4.900;2024-01-15T01:16:30;12.63;;;2.47;;
82938;SDS011;72714;52.744;4.900;2024-01-15T01:18:56;15.57;;;2.57;;
82938;SDS011;72714;52.744;4.900;2024-01-15T01:21:22;11.03;;;2.10;;
82938;SDS011;72714;52.744;4.900;2024-01-15T01:23:47;11.35;;;2.17;;
82938;SDS011;72714;52.744;4.900;2024-01-15T01:26:16;12.60;;;2.35;;
82938;SDS011;72714;52.744;4.900;2024-01-15T01:28:42;10.30;;;2.20;;
82938;SDS011;72714;52.744;4.900;2024-01-15T01:31:07;11.20;;;1.93;;
82938;SDS011;72714;52.744;4.900;2024-01-15T01:33:33;13.48;;;2.40;;
82938;SDS011;72714;52.744;4.900;2024-01-15T01:35:59;13.10;;;2.22;;
82938;SDS011;72714;52.744;4.900;2024-01-15T01:38:24;14.77;;;2.70;;
82938;SDS011;72714;52.744;4.900;2024-01-15T01:40:50;17.70;;;2.60;;
82938;SDS011;72714;52.744;4.900;2024-01-15T01:43:15;13.55;;;2.38;;
82938;SDS011;72714;52.744;4.900;2024-01-15T01:45:41;12.50;;;2.43;;
82938;SDS011;72714;52.744;4.900;2024-01-15T01:48:06;16.20;;;2.63;;
82938;SDS011;72714;52.744;4.900;2024-01-15T01:50:32;11.13;;;2.10;;
82938;SDS011;72714;52.744;4.900;2024-01-15T01:52:58;16.30;;;2.97;;
82938;SDS011;72714;52.744;4.900;2024-01-15T01:55:25;13.10;;;2.47;;
82938;SDS011;72714;52.744;4.900;2024-01-15T01:57:53;13.55;;;2.58;;
82938;SDS011;72714;52.744;4.900;2024-01-15T02:00:18;11.50;;;2.30;;
82938;SDS011;72714;52.744;4.900;2024-01-15T02:02:44;10.80;;;2.10;;
82938;SDS011;72714;52.744;4.900;2024-01-15T02:05:10;14.13;;;2.20;;
82938;SDS011;72714;52.744;4.900;2024-01-15T02:07:37;11.23;;;2.22;;
82938;SDS011;72714;52.744;4.900;2024-01-15T02:10:03;17.63;;;2.53;;
82938;SDS011;72714;52.744;4.900;2024-01-15T02:12:29;12.23;;;2.55;;
82938;SDS011;72714;52.744;4.900;2024-01-15T02:14:56;13.57;;;2.40;;
82938;SDS011;72714;52.744;4.900;2024-01-15T02:17:21;13.52;;;2.30;;
82938;SDS011;72714;52.744;4.900;2024-01-15T02:19:47;12.33;;;2.10;;
82938;SDS011;72714;52.744;4.900;2024-01-15T02:22:12;13.37;;;2.67;;
82938;SDS011;72714;52.744;4.900;2024-01-15T02:24:38;14.23;;;2.00;;
82938;SDS011;72714;52.744;4.900;2024-01-15T02:27:03;9.83;;;1.73;;
82938;SDS011;72714;52.744;4.900;2024-01-15T02:29:29;8.50;;;1.43;;
82938;SDS011;72714;52.744;4.900;2024-01-15T02:31:54;8.80;;;1.90;;
82938;SDS011;72714;52.744;4.900;2024-01-15T02:34:20;7.65;;;1.40;;
82938;SDS011;72714;52.744;4.900;2024-01-15T02:36:45;7.33;;;1.50;;
82938;SDS011;72714;52.744;4.900;2024-01-15T02:39:11;8.23;;;1.60;;
82938;SDS011;72714;52.744;4.900;2024-01-15T02:41:36;7.75;;;1.42;;
82938;SDS011;72714;52.744;4.900;2024-01-15T02:44:02;11.23;;;1.83;;
82938;SDS011;72714;52.744;4.900;2024-01-15T02:46:27;11.13;;;1.93;;
82938;SDS011;72714;52.744;4.900;2024-01-15T02:48:53;10.65;;;1.92;;
82938;SDS011;72714;52.744;4.900;2024-01-15T02:51:18;15.15;;;2.38;;
82938;SDS011;72714;52.744;4.900;2024-01-15T02:53:44;15.47;;;2.60;;
82938;SDS011;72714;52.744;4.900;2024-01-15T02:56:10;17.83;;;2.57;;
82938;SDS011;72714;52.744;4.900;2024-01-15T02:58:35;16.37;;;3.17;;
82938;SDS011;72714;52.744;4.900;2024-01-15T03:01:00;14.35;;;2.70;;
82938;SDS011;72714;52.744;4.900;2024-01-15T03:03:26;13.70;;;2.37;;
82938;SDS011;72714;52.744;4.900;2024-01-15T03:05:51;18.03;;;3.10;;
82938;SDS011;72714;52.744;4.900;2024-01-15T03:08:17;15.18;;;2.58;;
82938;SDS011;72714;52.744;4.900;2024-01-15T03:10:42;18.10;;;3.23;;
82938;SDS011;72714;52.744;4.900;2024-01-15T03:13:08;14.93;;;2.63;;
82938;SDS011;72714;52.744;4.900;2024-01-15T03:15:33;15.33;;;2.80;;
82938;SDS011;72714;52.744;4.900;2024-01-15T03:17:59;17.73;;;2.70;;
82938;SDS011;72714;52.744;4.900;2024-01-15T03:20:24;15.17;;;2.67;;
82938;SDS011;72714;52.744;4.900;2024-01-15T03:22:50;14.60;;;2.20;;
82938;SDS011;72714;52.744;4.900;2024-01-15T03:25:16;11.60;;;2.20;;
82938;SDS011;72714;52.744;4.900;2024-01-15T03:27:41;12.27;;;2.07;;
82938;SDS011;72714;52.744;4.900;2024-01-15T03:30:07;9.87;;;2.00;;
82938;SDS011;72714;52.744;4.900;2024-01-15T03:32:33;12.07;;;2.35;;
82938;SDS011;72714;52.744;4.900;2024-01-15T03:34:58;19.07;;;2.73;;
82938;SDS011;72714;52.744;4.900;2024-01-15T03:37:23;14.47;;;2.23;;
82938;SDS011;72714;52.744;4.900;2024-01-15T03:39:49;14.30;;;2.40;;
82938;SDS011;72714;52.744;4.900;2024-01-15T03:42:14;13.97;;;2.40;;
82938;SDS011;72714;52.744;4.900;2024-01-15T03:44:41;13.05;;;2.53;;
82938;SDS011;72714;52.744;4.900;2024-01-15T03:47:06;12.32;;;2.38;;
82938;SDS011;72714;52.744;4.900;2024-01-15T03:49:31;16.03;;;2.93;;
82938;SDS011;72714;52.744;4.900;2024-01-15T03:51:57;11.37;;;2.53;;
82938;SDS011;72714;52.744;4.900;2024-01-15T03:54:22;17.27;;;2.97;;
82938;SDS011;72714;52.744;4.900;2024-01-15T03:56:48;12.67;;;2.30;;
82938;SDS011;72714;52.744;4.900;2024-01-15T03:59:13;15.97;;;3.10;;
82938;SDS011;72714;52.744;4.900;2024-01-15T04:01:39;14.52;;;2.30;;
82938;SDS011;72714;52.744;4.900;2024-01-15T04:04:04;13.90;;;2.50;;
82938;SDS011;72714;52.744;4.900;2024-01-15T04:06:30;12.53;;;2.37;;
82938;SDS011;72714;52.744;4.900;2024-01-15T04:08:55;10.45;;;2.10;;
82938;SDS011;72714;52.744;4.900;2024-01-15T04:11:21;10.33;;;2.00;;
82938;SDS011;72714;52.744;4.900;2024-01-15T04:13:47;11.10;;;2.08;;
82938;SDS011;72714;52.744;4.900;2024-01-15T04:16:13;10.60;;;2.15;;
82938;SDS011;72714;52.744;4.900;2024-01-15T04:18:38;12.00;;;1.90;;
82938;SDS011;72714;52.744;4.900;2024-01-15T04:21:04;10.73;;;1.90;;
82938;SDS011;72714;52.744;4.900;2024-01-15T04:23:31;8.70;;;1.70;;
82938;SDS011;72714;52.744;4.900;2024-01-15T04:25:58;11.30;;;2.20;;
82938;SDS011;72714;52.744;4.900;2024-01-15T04:28:23;14.43;;;2.50;;
82938;SDS011;72714;52.744;4.900;2024-01-15T04:30:49;10.68;;;2.10;;
82938;SDS011;72714;52.744;4.900;2024-01-15T04:33:14;13.37;;;2.50;;
82938;SDS011;72714;52.744;4.900;2024-01-15T04:35:39;12.00;;;1.97;;
82938;SDS011;72714;52.744;4.900;2024-01-15T04:38:05;13.60;;;2.43;;
82938;SDS011;72714;52.744;4.900;2024-01-15T04:40:31;9.63;;;1.80;;
82938;SDS011;72714;52.744;4.900;2024-01-15T04:42:56;12.20;;;2.20;;
82938;SDS011;72714;52.744;4.900;2024-01-15T04:45:22;12.30;;;2.10;;
82938;SDS011;72714;52.744;4.900;2024-01-15T04:47:48;13.67;;;2.50;;
82938;SDS011;72714;52.744;4.900;2024-01-15T04:50:14;13.25;;;2.35;;
82938;SDS011;72714;52.744;4.900;2024-01-15T04:52:39;10.95;;;2.08;;
82938;SDS011;72714;52.744;4.900;2024-01-15T04:55:05;11.57;;;2.20;;
82938;SDS011;72714;52.744;4.900;2024-01-15T04:57:30;12.40;;;2.10;;
82938;SDS011;72714;52.744;4.900;2024-01-15T04:59:57;10.80;;;1.75;;
82938;SDS011;72714;52.744;4.900;2024-01-15T05:02:23;9.05;;;1.40;;
82938;SDS011;72714;52.744;4.900;2024-01-15T05:04:48;7.53;;;1.60;;
82938;SDS011;72714;52.744;4.900;2024-01-15T05:07:14;8.17;;;1.53;;
82938;SDS011;72714;52.744;4.900;2024-01-15T05:09:39;9.85;;;1.90;;
82938;SDS011;72714;52.744;4.900;2024-01-15T05:12:04;9.23;;;1.67;;
82938;SDS011;72714;52.744;4.900;2024-01-15T05:14:30;11.93;;;2.13;;
82938;SDS011;72714;52.744;4.900;2024-01-15T05:16:55;11.53;;;2.43;;
82938;SDS011;72714;52.744;4.900;2024-01-15T05:19:21;12.63;;;2.08;;
82938;SDS011;72714;52.744;4.900;2024-01-15T05:21:46;10.57;;;1.83;;
82938;SDS011;72714;52.744;4.900;2024-01-15T05:24:12;10.70;;;2.00;;
82938;SDS011;72714;52.744;4.900;2024-01-15T05:26:37;7.75;;;1.50;;
82938;SDS011;72714;52.744;4.900;2024-01-15T05:29:03;7.83;;;1.50;;
82938;SDS011;72714;52.744;4.900;2024-01-15T05:31:29;7.53;;;1.35;;
82938;SDS011;72714;52.744;4.900;2024-01-15T05:33:54;10.27;;;2.00;;
82938;SDS011;72714;52.744;4.900;2024-01-15T05:36:20;10.13;;;2.40;;
82938;SDS011;72714;52.744;4.900;2024-01-15T05:38:45;11.57;;;2.20;;
82938;SDS011;72714;52.744;4.900;2024-01-15T05:41:10;11.00;;;1.90;;
82938;SDS011;72714;52.744;4.900;2024-01-15T05:43:36;11.23;;;2.00;;
82938;SDS011;72714;52.744;4.900;2024-01-15T05:46:01;13.57;;;2.30;;
82938;SDS011;72714;52.744;4.900;2024-01-15T05:48:28;11.45;;;2.33;;
82938;SDS011;72714;52.744;4.900;2024-01-15T05:50:54;12.60;;;2.42;;
82938;SDS011;72714;52.744;4.900;2024-01-15T05:53:20;14.30;;;2.70;;
82938;SDS011;72714;52.744;4.900;2024-01-15T05:55:45;17.53;;;2.50;;
82938;SDS011;72714;52.744;4.900;2024-01-15T05:58:11;12.40;;;2.20;;
82938;SDS011;72714;52.744;4.900;2024-01-15T06:00:43;8.10;;;1.40;;
82938;SDS011;72714;52.744;4.900;2024-01-15T06:03:08;10.37;;;1.70;;
82938;SDS011;72714;52.744;4.900;2024-01-15T06:05:33;7.07;;;1.67;;
82938;SDS011;72714;52.744;4.900;2024-01-15T06:07:59;6.27;;;1.40;;
82938;SDS011;72714;52.744;4.900;2024-01-15T06:10:24;8.67;;;1.67;;
82938;SDS011;72714;52.744;4.900;2024-01-15T06:12:50;10.27;;;1.83;;
82938;SDS011;72714;52.744;4.900;2024-01-15T06:15:15;10.18;;;1.77;;
82938;SDS011;72714;52.744;4.900;2024-01-15T06:17:41;9.50;;;1.85;;
82938;SDS011;72714;52.744;4.900;2024-01-15T06:20:07;9.97;;;2.00;;
82938;SDS011;72714;52.744;4.900;2024-01-15T06:22:34;11.93;;;2.20;;
82938;SDS011;72714;52.744;4.900;2024-01-15T06:25:00;13.75;;;1.92;;
82938;SDS011;72714;52.744;4.900;2024-01-15T06:27:26;12.00;;;2.10;;
82938;SDS011;72714;52.744;4.900;2024-01-15T06:29:51;11.20;;;1.90;;
82938;SDS011;72714;52.744;4.900;2024-01-15T06:32:17;13.02;;;2.45;;
82938;SDS011;72714;52.744;4.900;2024-01-15T06:34:42;18.87;;;3.30;;
82938;SDS011;72714;52.744;4.900;2024-01-15T06:37:08;15.00;;;2.40;;
82938;SDS011;72714;52.744;4.900;2024-01-15T06:39:33;11.32;;;1.92;;
82938;SDS011;72714;52.744;4.900;2024-01-15T06:41:59;9.32;;;1.70;;
82938;SDS011;72714;52.744;4.900;2024-01-15T06:44:24;8.60;;;1.87;;
82938;SDS011;72714;52.744;4.900;2024-01-15T06:46:50;8.20;;;1.90;;
82938;SDS011;72714;52.744;4.900;2024-01-15T06:49:16;7.57;;;1.60;;
82938;SDS011;72714;52.744;4.900;2024-01-15T06:51:42;7.25;;;1.60;;
82938;SDS011;72714;52.744;4.900;2024-01-15T06:54:07;6.63;;;1.60;;
82938;SDS011;72714;52.744;4.900;2024-01-15T06:56:33;9.57;;;1.53;;
82938;SDS011;72714;52.744;4.900;2024-01-15T06:58:59;10.73;;;1.70;;
82938;SDS011;72714;52.744;4.900;2024-01-15T07:01:24;13.30;;;1.90;;
82938;SDS011;72714;52.744;4.900;2024-01-15T07:03:50;11.55;;;2.20;;
82938;SDS011;72714;52.744;4.900;2024-01-15T07:06:15;12.17;;;2.00;;
82938;SDS011;72714;52.744;4.900;2024-01-15T07:08:42;14.48;;;2.80;;
82938;SDS011;72714;52.744;4.900;2024-01-15T07:11:08;15.13;;;2.25;;
82938;SDS011;72714;52.744;4.900;2024-01-15T07:13:35;12.88;;;2.38;;
82938;SDS011;72714;52.744;4.900;2024-01-15T07:16:01;16.02;;;2.58;;
82938;SDS011;72714;52.744;4.900;2024-01-15T07:18:27;15.00;;;2.57;;
82938;SDS011;72714;52.744;4.900;2024-01-15T07:20:52;13.30;;;2.53;;
82938;SDS011;72714;52.744;4.900;2024-01-15T07:23:18;14.77;;;2.90;;
82938;SDS011;72714;52.744;4.900;2024-01-15T07:25:43;14.93;;;2.70;;
82938;SDS011;72714;52.744;4.900;2024-01-15T07:28:09;10.75;;;2.13;;
82938;SDS011;72714;52.744;4.900;2024-01-15T07:30:34;11.17;;;2.07;;
82938;SDS011;72714;52.744;4.900;2024-01-15T07:33:00;11.57;;;2.17;;
82938;SDS011;72714;52.744;4.900;2024-01-15T07:35:25;14.47;;;2.67;;
82938;SDS011;72714;52.744;4.900;2024-01-15T07:37:51;12.65;;;2.42;;
82938;SDS011;72714;52.744;4.900;2024-01-15T07:40:17;13.53;;;2.60;;
82938;SDS011;72714;52.744;4.900;2024-01-15T07:42:43;14.85;;;2.60;;
82938;SDS011;72714;52.744;4.900;2024-01-15T07:45:09;13.27;;;2.20;;
82938;SDS011;72714;52.744;4.900;2024-01-15T07:47:35;11.70;;;2.20;;
82938;SDS011;72714;52.744;4.900;2024-01-15T07:50:01;11.50;;;2.37;;
82938;SDS011;72714;52.744;4.900;2024-01-15T07:52:26;11.57;;;1.87;;
82938;SDS011;72714;52.744;4.900;2024-01-15T07:54:52;14.30;;;2.90;;
82938;SDS011;72714;52.744;4.900;2024-01-15T07:57:17;12.38;;;2.30;;
82938;SDS011;72714;52.744;4.900;2024-01-15T07:59:43;12.23;;;2.50;;
82938;SDS011;72714;52.744;4.900;2024-01-15T08:02:08;11.17;;;2.67;;
82938;SDS011;72714;52.744;4.900;2024-01-15T08:04:36;18.15;;;2.90;;
82938;SDS011;72714;52.744;4.900;2024-01-15T08:07:02;17.15;;;2.45;;
82938;SDS011;72714;52.744;4.900;2024-01-15T08:09:28;15.98;;;2.78;;
82938;SDS011;72714;52.744;4.900;2024-01-15T08:11:54;15.50;;;3.10;;
82938;SDS011;72714;52.744;4.900;2024-01-15T08:14:20;15.77;;;2.80;;
82938;SDS011;72714;52.744;4.900;2024-01-15T08:16:45;15.07;;;2.38;;
82938;SDS011;72714;52.744;4.900;2024-01-15T08:19:11;7.57;;;1.60;;
82938;SDS011;72714;52.744;4.900;2024-01-15T08:21:36;7.93;;;1.83;;
82938;SDS011;72714;52.744;4.900;2024-01-15T08:24:02;6.82;;;1.58;;
82938;SDS011;72714;52.744;4.900;2024-01-15T08:26:28;10.40;;;1.88;;
82938;SDS011;72714;52.744;4.900;2024-01-15T08:28:54;11.88;;;1.95;;
82938;SDS011;72714;52.744;4.900;2024-01-15T08:31:20;16.03;;;2.07;;
82938;SDS011;72714;52.744;4.900;2024-01-15T08:33:46;11.10;;;1.90;;
82938;SDS011;72714;52.744;4.900;2024-01-15T08:36:11;14.87;;;2.27;;
82938;SDS011;72714;52.744;4.900;2024-01-15T08:38:37;16.50;;;2.47;;
82938;SDS011;72714;52.744;4.900;2024-01-15T08:41:03;11.80;;;1.93;;
82938;SDS011;72714;52.744;4.900;2024-01-15T08:43:28;9.00;;;2.10;;
82938;SDS011;72714;52.744;4.900;2024-01-15T08:45:56;8.32;;;1.65;;
82938;SDS011;72714;52.744;4.900;2024-01-15T08:48:22;12.35;;;1.90;;
82938;SDS011;72714;52.744;4.900;2024-01-15T08:50:48;10.27;;;2.20;;
82938;SDS011;72714;52.744;4.900;2024-01-15T08:53:13;10.90;;;1.80;;
82938;SDS011;72714;52.744;4.900;2024-01-15T08:55:39;9.63;;;1.75;;
82938;SDS011;72714;52.744;4.900;2024-01-15T08:58:04;11.23;;;1.70;;
82938;SDS011;72714;52.744;4.900;2024-01-15T09:00:31;12.05;;;2.20;;
82938;SDS011;72714;52.744;4.900;2024-01-15T09:02:56;14.73;;;2.65;;
82938;SDS011;72714;52.744;4.900;2024-01-15T09:05:22;11.63;;;1.85;;
82938;SDS011;72714;52.744;4.900;2024-01-15T09:07:48;12.80;;;2.07;;
82938;SDS011;72714;52.744;4.900;2024-01-15T09:10:14;10.35;;;1.90;;
82938;SDS011;72714;52.744;4.900;2024-01-15T09:12:39;10.75;;;2.00;;
82938;SDS011;72714;52.744;4.900;2024-01-15T09:15:05;12.77;;;2.38;;
82938;SDS011;72714;52.744;4.900;2024-01-15T09:17:31;12.02;;;2.10;;
82938;SDS011;72714;52.744;4.900;2024-01-15T09:19:57;12.13;;;2.20;;
82938;SDS011;72714;52.744;4.900;2024-01-15T09:22:23;11.80;;;2.03;;
82938;SDS011;72714;52.744;4.900;2024-01-15T09:24:49;11.90;;;2.07;;
82938;SDS011;72714;52.744;4.900;2024-01-15T09:27:14;9.27;;;1.88;;
82938;SDS011;72714;52.744;4.900;2024-01-15T09:29:40;11.00;;;2.00;;
82938;SDS011;72714;52.744;4.900;2024-01-15T09:32:07;7.07;;;1.30;;
82938;SDS011;72714;52.744;4.900;2024-01-15T09:34:36;4.60;;;1.08;;
82938;SDS011;72714;52.744;4.900;2024-01-15T09:37:01;4.85;;;1.02;;
82938;SDS011;72714;52.744;4.900;2024-01-15T09:39:28;5.95;;;1.25;;
82938;SDS011;72714;52.744;4.900;2024-01-15T09:41:53;6.93;;;1.20;;
82938;SDS011;72714;52.744;4.900;2024-01-15T09:44:19;7.68;;;1.40;;
82938;SDS011;72714;52.744;4.900;2024-01-15T09:46:45;10.68;;;1.70;;
82938;SDS011;72714;52.744;4.900;2024-01-15T09:49:12;8.50;;;1.95;;
82938;SDS011;72714;52.744;4.900;2024-01-15T09:51:37;10.20;;;1.67;;
82938;SDS011;72714;52.744;4.900;2024-01-15T09:54:04;9.38;;;1.60;;
82938;SDS011;72714;52.744;4.900;2024-01-15T09:56:30;10.13;;;1.67;;
82938;SDS011;72714;52.744;4.900;2024-01-15T09:58:56;8.67;;;1.60;;
82938;SDS011;72714;52.744;4.900;2024-01-15T10:01:22;8.18;;;1.90;;
82938;SDS011;72714;52.744;4.900;2024-01-15T10:03:49;10.60;;;1.60;;
82938;SDS011;72714;52.744;4.900;2024-01-15T10:06:15;8.82;;;1.67;;
82938;SDS011;72714;52.744;4.900;2024-01-15T10:08:47;9.35;;;1.67;;
82938;SDS011;72714;52.744;4.900;2024-01-15T10:11:14;9.45;;;1.55;;
82938;SDS011;72714;52.744;4.900;2024-01-15T10:13:39;7.70;;;1.57;;
82938;SDS011;72714;52.744;4.900;2024-01-15T10:16:05;8.20;;;1.70;;
82938;SDS011;72714;52.744;4.900;2024-01-15T10:18:31;6.72;;;1.40;;
82938;SDS011;72714;52.744;4.900;2024-01-15T10:20:57;6.73;;;1.50;;
82938;SDS011;72714;52.744;4.900;2024-01-15T10:23:23;8.73;;;1.60;;
82938;SDS011;72714;52.744;4.900;2024-01-15T10:25:49;8.95;;;1.75;;
82938;SDS011;72714;52.744;4.900;2024-01-15T10:28:16;6.85;;;1.40;;
82938;SDS011;72714;52.744;4.900;2024-01-15T10:30:44;10.18;;;1.60;;
82938;SDS011;72714;52.744;4.900;2024-01-15T10:33:09;8.80;;;1.80;;
82938;SDS011;72714;52.744;4.900;2024-01-15T10:35:37;9.80;;;2.08;;
82938;SDS011;72714;52.744;4.900;2024-01-15T10:38:03;13.98;;;2.22;;
82938;SDS011;72714;52.744;4.900;2024-01-15T10:40:29;13.07;;;2.40;;
82938;SDS011;72714;52.744;4.900;2024-01-15T10:42:55;14.47;;;2.50;;
82938;SDS011;72714;52.744;4.900;2024-01-15T10:45:20;16.13;;;2.87;;
82938;SDS011;72714;52.744;4.900;2024-01-15T10:47:46;15.63;;;2.85;;
82938;SDS011;72714;52.744;4.900;2024-01-15T10:50:13;14.93;;;2.70;;
82938;SDS011;72714;52.744;4.900;2024-01-15T10:52:39;10.97;;;2.07;;
82938;SDS011;72714;52.744;4.900;2024-01-15T10:55:08;11.73;;;2.40;;
82938;SDS011;72714;52.744;4.900;2024-01-15T10:57:35;11.85;;;2.42;;
82938;SDS011;72714;52.744;4.900;2024-01-15T11:00:02;14.87;;;2.50;;
82938;SDS011;72714;52.744;4.900;2024-01-15T11:02:31;9.70;;;2.07;;
82938;SDS011;72714;52.744;4.900;2024-01-15T11:04:58;11.30;;;2.20;;
82938;SDS011;72714;52.744;4.900;2024-01-15T11:07:24;12.52;;;2.90;;
82938;SDS011;72714;52.744;4.900;2024-01-15T11:09:50;13.50;;;2.30;;
82938;SDS011;72714;52.744;4.900;2024-01-15T11:12:16;10.10;;;2.10;;
82938;SDS011;72714;52.744;4.900;2024-01-15T11:14:47;9.97;;;1.70;;
82938;SDS011;72714;52.744;4.900;2024-01-15T11:41:45;10.40;;;1.70;;
82938;SDS011;72714;52.744;4.900;2024-01-15T11:44:10;10.03;;;2.03;;
82938;SDS011;72714;52.744;4.900;2024-01-15T11:46:38;7.82;;;1.50;;
82938;SDS011;72714;52.744;4.900;2024-01-15T11:49:05;7.63;;;1.50;;
82938;SDS011;72714;52.744;4.900;2024-01-15T11:51:32;8.30;;;1.70;;
82938;SDS011;72714;52.744;4.900;2024-01-15T11:53:58;9.50;;;1.70;;
82938;SDS011;72714;52.744;4.900;2024-01-15T11:56:28;7.07;;;1.65;;
82938;SDS011;72714;52.744;4.900;2024-01-15T11:58:54;9.48;;;2.22;;
82938;SDS011;72714;52.744;4.900;2024-01-15T12:01:19;9.98;;;1.77;;
82938;SDS011;72714;52.744;4.900;2024-01-15T12:03:46;8.90;;;1.60;;
82938;SDS011;72714;52.744;4.900;2024-01-15T12:06:12;9.98;;;1.70;;
82938;SDS011;72714;52.744;4.900;2024-01-15T12:08:37;7.80;;;1.73;;
82938;SDS011;72714;52.744;4.900;2024-01-15T12:11:06;8.80;;;1.60;;
82938;SDS011;72714;52.744;4.900;2024-01-15T12:13:32;9.00;;;1.90;;
82938;SDS011;72714;52.744;4.900;2024-01-15T12:15:58;7.27;;;1.50;;
82938;SDS011;72714;52.744;4.900;2024-01-15T12:18:27;7.05;;;1.83;;
82938;SDS011;72714;52.744;4.900;2024-01-15T12:20:53;12.88;;;2.42;;
82938;SDS011;72714;52.744;4.900;2024-01-15T12:23:19;10.10;;;2.53;;
82938;SDS011;72714;52.744;4.900;2024-01-15T12:25:44;18.03;;;3.43;;
82938;SDS011;72714;52.744;4.900;2024-01-15T12:28:11;14.68;;;2.55;;
82938;SDS011;72714;52.744;4.900;2024-01-15T12:30:36;15.87;;;2.70;;
82938;SDS011;72714;52.744;4.900;2024-01-15T12:33:03;13.30;;;2.90;;
82938;SDS011;72714;52.744;4.900;2024-01-15T12:35:29;16.10;;;2.73;;
82938;SDS011;72714;52.744;4.900;2024-01-15T12:37:55;16.33;;;3.22;;
82938;SDS011;72714;52.744;4.900;2024-01-15T12:40:21;20.13;;;3.37;;
82938;SDS011;72714;52.744;4.900;2024-01-15T12:42:47;17.70;;;3.72;;
82938;SDS011;72714;52.744;4.900;2024-01-15T12:45:12;14.82;;;2.60;;
82938;SDS011;72714;52.744;4.900;2024-01-15T12:47:41;14.98;;;2.60;;
82938;SDS011;72714;52.744;4.900;2024-01-15T12:50:08;17.65;;;3.00;;
82938;SDS011;72714;52.744;4.900;2024-01-15T12:52:35;15.45;;;2.65;;
82938;SDS011;72714;52.744;4.900;2024-01-15T12:55:03;14.97;;;2.33;;
82938;SDS011;72714;52.744;4.900;2024-01-15T12:57:32;14.18;;;2.33;;
82938;SDS011;72714;52.744;4.900;2024-01-15T12:59:57;13.07;;;2.47;;
82938;SDS011;72714;52.744;4.900;2024-01-15T13:02:23;13.38;;;2.58;;
82938;SDS011;72714;52.744;4.900;2024-01-15T13:04:51;12.13;;;2.50;;
82938;SDS011;72714;52.744;4.900;2024-01-15T13:07:16;15.77;;;3.10;;
82938;SDS011;72714;52.744;4.900;2024-01-15T13:09:42;14.53;;;2.50;;
82938;SDS011;72714;52.744;4.900;2024-01-15T13:12:08;13.32;;;2.60;;
82938;SDS011;72714;52.744;4.900;2024-01-15T13:14:33;18.37;;;3.30;;
82938;SDS011;72714;52.744;4.900;2024-01-15T13:16:59;17.60;;;2.92;;
82938;SDS011;72714;52.744;4.900;2024-01-15T13:19:25;16.23;;;3.20;;
82938;SDS011;72714;52.744;4.900;2024-01-15T13:21:50;12.77;;;2.35;;
82938;SDS011;72714;52.744;4.900;2024-01-15T13:24:20;12.93;;;2.60;;
82938;SDS011;72714;52.744;4.900;2024-01-15T13:26:49;16.10;;;3.75;;
82938;SDS011;72714;52.744;4.900;2024-01-15T13:29:15;15.55;;;3.00;;
82938;SDS011;72714;52.744;4.900;2024-01-15T13:31:40;15.00;;;2.90;;
82938;SDS011;72714;52.744;4.900;2024-01-15T13:34:06;19.23;;;3.30;;
82938;SDS011;72714;52.744;4.900;2024-01-15T13:36:32;17.80;;;2.75;;
82938;SDS011;72714;52.744;4.900;2024-01-15T13:38:58;10.82;;;2.05;;
82938;SDS011;72714;52.744;4.900;2024-01-15T13:41:24;12.80;;;2.10;;
82938;SDS011;72714;52.744;4.900;2024-01-15T13:43:53;10.13;;;1.98;;
82938;SDS011;72714;52.744;4.900;2024-01-15T13:46:20;16.90;;;2.67;;
82938;SDS011;72714;52.744;4.900;2024-01-15T13:48:47;12.95;;;2.45;;
82938;SDS011;72714;52.744;4.900;2024-01-15T13:51:12;7.23;;;1.73;;
82938;SDS011;72714;52.744;4.900;2024-01-15T13:53:38;9.37;;;1.87;;
82938;SDS011;72714;52.744;4.900;2024-01-15T13:56:04;7.53;;;1.85;;
82938;SDS011;72714;52.744;4.900;2024-01-15T13:58:30;11.10;;;2.30;;
82938;SDS011;72714;52.744;4.900;2024-01-15T14:00:56;15.07;;;2.60;;
82938;SDS011;72714;52.744;4.900;2024-01-15T14:03:22;10.98;;;2.63;;
82938;SDS011;72714;52.744;4.900;2024-01-15T14:05:47;11.63;;;2.40;;
82938;SDS011;72714;52.744;4.900;2024-01-15T14:08:12;13.80;;;2.57;;
82938;SDS011;72714;52.744;4.900;2024-01-15T14:10:38;14.13;;;2.45;;
82938;SDS011;72714;52.744;4.900;2024-01-15T14:13:03;10.67;;;2.27;;
82938;SDS011;72714;52.744;4.900;2024-01-15T14:15:29;11.57;;;2.10;;
82938;SDS011;72714;52.744;4.900;2024-01-15T14:17:54;11.02;;;2.03;;
82938;SDS011;72714;52.744;4.900;2024-01-15T14:20:20;10.65;;;1.98;;
82938;SDS011;72714;52.744;4.900;2024-01-15T14:22:45;13.33;;;2.30;;
82938;SDS011;72714;52.744;4.900;2024-01-15T14:25:11;9.50;;;1.80;;
82938;SDS011;72714;52.744;4.900;2024-01-15T14:27:36;7.97;;;1.67;;
82938;SDS011;72714;52.744;4.900;2024-01-15T14:30:02;7.77;;;1.20;;
82938;SDS011;72714;52.744;4.900;2024-01-15T14:32:28;6.83;;;1.40;;
82938;SDS011;72714;52.744;4.900;2024-01-15T14:34:53;7.57;;;1.50;;
82938;SDS011;72714;52.744;4.900;2024-01-15T14:37:19;8.33;;;1.53;;
82938;SDS011;72714;52.744;4.900;2024-01-15T14:39:45;10.20;;;1.70;;
82938;SDS011;72714;52.744;4.900;2024-01-15T14:42:11;9.40;;;1.70;;
82938;SDS011;72714;52.744;4.900;2024-01-15T14:44:37;9.52;;;1.70;;
82938;SDS011;72714;52.744;4.900;2024-01-15T14:47:04;5.45;;;1.20;;
82938;SDS011;72714;52.744;4.900;2024-01-15T14:49:30;4.83;;;1.00;;
82938;SDS011;72714;52.744;4.900;2024-01-15T14:51:57;3.15;;;0.88;;
82938;SDS011;72714;52.744;4.900;2024-01-15T14:54:25;2.90;;;0.88;;